createdAt,value
2023-03-24T00:01:52.723Z,11.00
2023-03-24T00:04:19.604Z,9.32
2023-03-24T00:06:49.245Z,8.43
2023-03-24T00:11:43.404Z,14.85
2023-03-24T00:14:13.205Z,10.70
2023-03-24T00:16:42.600Z,6.10
2023-03-24T00:21:37.611Z,8.27
2023-03-24T00:24:05.080Z,9.80
2023-03-24T00:26:32.484Z,11.93
2023-03-24T00:28:59.183Z,14.90
2023-03-24T00:31:26.498Z,14.93
2023-03-24T00:33:54.033Z,12.60
2023-03-24T00:36:23.141Z,15.50
2023-03-24T00:38:50.393Z,17.98
2023-03-24T00:41:20.288Z,9.68
2023-03-24T00:43:48.375Z,18.58
2023-03-24T00:46:27.465Z,13.55
2023-03-24T00:49:02.029Z,12.10
2023-03-24T00:51:30.624Z,11.27
2023-03-24T00:53:57.955Z,14.68
2023-03-24T00:56:27.035Z,15.05
2023-03-24T00:58:57.804Z,22.40
2023-03-24T01:01:29.429Z,14.93
2023-03-24T01:03:56.968Z,14.85
2023-03-24T01:06:24.536Z,18.20
2023-03-24T01:08:53.956Z,16.42
2023-03-24T01:11:22.583Z,15.10
2023-03-24T01:13:49.720Z,10.80
2023-03-24T01:16:16.771Z,14.20
2023-03-24T01:18:43.650Z,17.42
2023-03-24T01:21:11.581Z,19.65
2023-03-24T01:23:38.678Z,17.75
2023-03-24T01:26:07.600Z,16.88
2023-03-24T01:28:38.159Z,18.85
2023-03-24T01:31:05.104Z,23.38
2023-03-24T01:33:31.896Z,15.82
2023-03-24T01:35:58.718Z,16.25
2023-03-24T01:38:25.836Z,21.95
2023-03-24T01:40:53.572Z,19.48
2023-03-24T01:43:22.942Z,21.70
2023-03-24T01:46:07.008Z,21.50
2023-03-24T01:48:51.052Z,19.45
2023-03-24T01:51:21.861Z,18.08
2023-03-24T01:54:09.124Z,16.20
2023-03-24T01:56:38.695Z,18.02
2023-03-24T02:01:33.920Z,22.75
2023-03-24T02:04:04.089Z,16.38
2023-03-24T02:06:34.922Z,16.75
2023-03-24T02:09:01.941Z,13.13
2023-03-24T02:11:32.978Z,13.15
2023-03-24T02:13:59.819Z,15.07
2023-03-24T02:16:47.686Z,16.50
2023-03-24T02:20:02.577Z,10.25
2023-03-24T02:22:47.741Z,15.77
2023-03-24T02:25:23.056Z,19.45
2023-03-24T02:28:11.023Z,12.18
2023-03-24T02:30:47.002Z,23.27
2023-03-24T02:33:38.641Z,14.05
2023-03-24T02:36:11.733Z,16.63
2023-03-24T02:38:53.578Z,17.40
2023-03-24T02:41:20.327Z,24.55
2023-03-24T02:43:57.858Z,19.48
2023-03-24T02:46:43.608Z,18.25
2023-03-24T02:49:25.570Z,15.52
2023-03-24T02:52:21.788Z,22.70
2023-03-24T02:54:52.456Z,18.77
2023-03-24T02:57:38.635Z,16.95
2023-03-24T03:00:10.332Z,16.73
2023-03-24T03:02:39.906Z,15.43
2023-03-24T03:05:13.983Z,11.88
2023-03-24T03:07:41.393Z,18.00
2023-03-24T03:10:16.248Z,19.10
2023-03-24T03:12:44.054Z,20.50
2023-03-24T03:15:14.094Z,15.30
2023-03-24T03:17:53.298Z,14.80
2023-03-24T03:20:22.684Z,17.40
2023-03-24T03:22:58.633Z,17.85
2023-03-24T03:25:27.606Z,18.90
2023-03-24T03:27:56.762Z,23.85
2023-03-24T03:30:41.461Z,12.70
2023-03-24T03:33:18.255Z,16.73
2023-03-24T03:35:48.049Z,17.88
2023-03-24T03:38:36.283Z,15.82
2023-03-24T03:41:04.331Z,15.60
2023-03-24T03:43:31.614Z,14.25
2023-03-24T03:45:59.187Z,14.15
2023-03-24T03:48:26.721Z,24.13
2023-03-24T03:51:06.563Z,15.52
2023-03-24T03:53:50.838Z,17.98
2023-03-24T03:56:19.746Z,18.25
2023-03-24T03:58:47.331Z,18.13
2023-03-24T04:01:16.169Z,18.23
2023-03-24T04:03:49.654Z,18.17
2023-03-24T04:06:44.310Z,19.33
2023-03-24T04:09:38.080Z,22.23
2023-03-24T04:12:27.001Z,24.27
2023-03-24T04:15:18.215Z,25.38
2023-03-24T04:18:06.556Z,26.83
2023-03-24T04:20:46.325Z,19.00
2023-03-24T04:26:11.349Z,16.30
2023-03-24T04:28:40.023Z,23.27
2023-03-24T04:31:19.028Z,27.02
2023-03-24T04:33:50.498Z,33.63
2023-03-24T04:36:22.698Z,16.60
2023-03-24T04:38:53.329Z,25.30
2023-03-24T04:41:21.150Z,14.68
2023-03-24T04:43:48.124Z,16.35
2023-03-24T04:46:18.090Z,24.08
2023-03-24T04:48:48.315Z,20.10
2023-03-24T04:51:17.558Z,21.13
2023-03-24T04:53:44.556Z,26.20
2023-03-24T04:56:39.019Z,24.88
2023-03-24T04:59:07.349Z,31.05
2023-03-24T05:01:37.675Z,19.58
2023-03-24T05:04:04.697Z,18.85
2023-03-24T05:06:31.868Z,28.05
2023-03-24T05:08:59.323Z,21.88
2023-03-24T05:11:27.300Z,25.45
2023-03-24T05:13:54.892Z,24.00
2023-03-24T05:16:22.099Z,21.55
2023-03-24T05:18:49.037Z,20.48
2023-03-24T05:21:15.870Z,23.40
2023-03-24T05:23:42.630Z,22.58
2023-03-24T05:26:09.431Z,17.90
2023-03-24T05:28:36.175Z,25.77
2023-03-24T05:31:02.998Z,14.77
2023-03-24T05:33:32.772Z,26.15
2023-03-24T05:38:26.605Z,26.65
2023-03-24T05:40:59.422Z,26.25
2023-03-24T05:43:26.913Z,17.63
2023-03-24T05:45:54.041Z,16.80
2023-03-24T05:48:21.010Z,16.40
2023-03-24T05:50:47.778Z,17.02
2023-03-24T05:53:14.708Z,26.45
2023-03-24T05:55:41.773Z,20.73
2023-03-24T05:58:08.609Z,20.80
2023-03-24T06:00:35.446Z,25.80
2023-03-24T06:03:04.163Z,28.85
2023-03-24T06:05:32.721Z,23.65
2023-03-24T06:08:01.441Z,22.17
2023-03-24T06:10:29.268Z,20.60
2023-03-24T06:12:56.192Z,22.40
2023-03-24T06:15:24.417Z,23.73
2023-03-24T06:17:55.718Z,20.17
2023-03-24T06:20:22.505Z,34.72
2023-03-24T06:22:49.782Z,23.42
2023-03-24T06:25:18.168Z,16.85
2023-03-24T06:27:46.311Z,20.70
2023-03-24T06:30:16.509Z,22.63
2023-03-24T06:32:46.895Z,26.85
2023-03-24T06:35:15.399Z,25.73
2023-03-24T06:37:42.969Z,17.52
2023-03-24T06:40:15.298Z,19.48
2023-03-24T06:42:42.212Z,21.38
2023-03-24T06:45:09.494Z,16.92
2023-03-24T06:47:36.578Z,18.08
2023-03-24T06:50:03.923Z,20.17
2023-03-24T06:52:30.872Z,22.50
2023-03-24T06:54:58.248Z,19.02
2023-03-24T06:57:25.068Z,20.65
2023-03-24T06:59:52.318Z,24.20
2023-03-24T07:02:19.097Z,20.25
2023-03-24T07:04:45.902Z,26.67
2023-03-24T07:07:52.794Z,19.10
2023-03-24T07:09:59.893Z,21.75
2023-03-24T07:12:26.733Z,16.02
2023-03-24T07:14:53.471Z,17.92
2023-03-24T07:17:20.473Z,23.33
2023-03-24T07:19:47.516Z,22.42
2023-03-24T07:22:14.433Z,21.40
2023-03-24T07:24:41.411Z,26.90
2023-03-24T07:27:08.182Z,26.13
2023-03-24T07:29:34.987Z,13.48
2023-03-24T07:32:01.963Z,16.92
2023-03-24T07:34:28.785Z,18.83
2023-03-24T07:36:56.138Z,21.60
2023-03-24T07:39:23.112Z,20.55
2023-03-24T07:41:49.931Z,16.92
2023-03-24T07:44:16.747Z,20.75
2023-03-24T07:46:43.534Z,19.02
2023-03-24T07:49:18.838Z,20.85
2023-03-24T07:51:46.403Z,16.77
2023-03-24T07:54:13.232Z,16.83
2023-03-24T07:56:40.086Z,15.85
2023-03-24T07:59:07.823Z,18.20
2023-03-24T08:01:37.013Z,19.05
2023-03-24T08:04:04.805Z,20.77
2023-03-24T08:06:31.623Z,17.73
2023-03-24T08:08:58.362Z,21.58
2023-03-24T08:11:25.145Z,16.25
2023-03-24T08:13:51.897Z,15.88
2023-03-24T08:16:19.003Z,18.45
2023-03-24T08:18:46.331Z,16.05
2023-03-24T08:21:13.104Z,18.55
2023-03-24T08:23:39.964Z,22.10
2023-03-24T08:26:07.400Z,21.17
2023-03-24T08:28:34.284Z,14.82
2023-03-24T08:31:01.293Z,19.38
2023-03-24T08:33:28.195Z,17.90
2023-03-24T08:35:57.986Z,16.23
2023-03-24T08:38:30.705Z,11.90
2023-03-24T08:41:02.755Z,14.48
2023-03-24T08:43:31.256Z,16.20
2023-03-24T08:45:58.624Z,17.88
2023-03-24T08:48:25.677Z,10.82
2023-03-24T08:50:52.545Z,14.98
2023-03-24T08:53:19.416Z,19.48
2023-03-24T08:55:46.773Z,18.77
2023-03-24T08:58:18.279Z,9.25
2023-03-24T09:00:45.495Z,17.38
2023-03-24T09:03:18.650Z,15.27
2023-03-24T09:05:46.732Z,10.27
2023-03-24T09:08:14.517Z,14.30
2023-03-24T09:10:42.523Z,14.52
2023-03-24T09:13:09.431Z,11.15
2023-03-24T09:15:36.737Z,12.07
2023-03-24T09:18:03.604Z,21.25
2023-03-24T09:20:30.515Z,12.27
2023-03-24T09:22:57.344Z,19.38
2023-03-24T09:25:24.400Z,13.80
2023-03-24T09:27:51.196Z,18.23
2023-03-24T09:30:18.553Z,15.18
2023-03-24T09:32:45.873Z,15.15
2023-03-24T09:35:12.741Z,22.77
2023-03-24T09:37:40.899Z,15.93
2023-03-24T09:40:08.020Z,9.98
2023-03-24T09:42:39.474Z,16.42
2023-03-24T09:45:41.083Z,11.98
2023-03-24T09:48:12.123Z,13.98
2023-03-24T09:50:48.983Z,11.25
2023-03-24T09:53:40.526Z,9.70
2023-03-24T09:56:26.342Z,12.00
2023-03-24T09:59:20.025Z,14.57
2023-03-24T10:01:47.679Z,15.18
2023-03-24T10:04:16.488Z,13.82
2023-03-24T10:06:43.668Z,11.80
2023-03-24T10:09:28.922Z,13.65
2023-03-24T10:12:16.728Z,10.88
2023-03-24T10:15:16.212Z,17.35
2023-03-24T10:17:52.572Z,13.35
2023-03-24T10:20:39.472Z,12.95
2023-03-24T10:23:24.769Z,13.68
2023-03-24T10:26:00.795Z,12.82
2023-03-24T10:28:33.071Z,13.68
2023-03-24T10:31:01.109Z,14.35
2023-03-24T10:33:28.451Z,13.57
2023-03-24T10:36:13.934Z,15.55
2023-03-24T10:38:41.626Z,7.43
2023-03-24T10:41:28.452Z,4.65
2023-03-24T10:43:56.955Z,10.40
2023-03-24T10:46:26.128Z,9.60
2023-03-24T10:48:54.874Z,10.70
2023-03-24T10:51:28.282Z,9.20
2023-03-24T10:54:11.402Z,9.02
2023-03-24T10:56:42.573Z,12.18
2023-03-24T10:59:28.938Z,10.95
2023-03-24T11:01:57.807Z,8.50
2023-03-24T11:04:24.632Z,12.82
2023-03-24T11:07:16.601Z,9.50
2023-03-24T11:09:44.745Z,8.20
2023-03-24T11:12:41.867Z,13.20
2023-03-24T11:15:21.015Z,11.00
2023-03-24T11:18:08.502Z,11.15
2023-03-24T11:20:50.858Z,10.00
2023-03-24T11:23:33.914Z,8.70
2023-03-24T11:26:19.807Z,6.43
2023-03-24T11:28:48.415Z,6.93
2023-03-24T11:31:24.876Z,5.80
2023-03-24T11:34:02.772Z,12.18
2023-03-24T11:36:36.026Z,8.95
2023-03-24T11:39:18.920Z,8.48
2023-03-24T11:42:15.661Z,6.63
2023-03-24T11:44:45.516Z,11.68
2023-03-24T11:47:12.284Z,9.15
2023-03-24T11:49:43.449Z,11.52
2023-03-24T11:52:25.915Z,9.43
2023-03-24T11:54:52.942Z,5.57
2023-03-24T11:57:38.532Z,10.55
2023-03-24T12:00:18.432Z,11.68
2023-03-24T12:03:02.214Z,13.55
2023-03-24T12:05:51.304Z,5.75
2023-03-24T12:08:24.773Z,6.75
2023-03-24T12:11:03.459Z,5.30
2023-03-24T12:13:41.803Z,5.60
2023-03-24T12:16:26.861Z,9.27
2023-03-24T12:19:11.863Z,12.90
2023-03-24T12:22:03.604Z,9.15
2023-03-24T12:25:09.065Z,8.00
2023-03-24T12:28:09.470Z,13.20
2023-03-24T12:31:15.412Z,10.38
2023-03-24T12:34:06.798Z,8.40
2023-03-24T12:37:04.855Z,6.35
2023-03-24T12:39:37.506Z,10.13
2023-03-24T12:42:13.737Z,15.70
2023-03-24T12:44:46.820Z,13.90
2023-03-24T12:47:34.892Z,9.70
2023-03-24T12:50:23.248Z,11.38
2023-03-24T12:53:12.747Z,12.13
2023-03-24T12:55:50.621Z,13.65
2023-03-24T12:58:22.734Z,14.85
2023-03-24T13:01:08.930Z,8.65
2023-03-24T13:03:42.778Z,13.30
2023-03-24T13:06:34.436Z,8.90
2023-03-24T13:09:25.705Z,10.20
2023-03-24T13:12:18.793Z,12.30
2023-03-24T13:14:45.547Z,8.02
2023-03-24T13:17:22.698Z,9.23
2023-03-24T13:19:50.054Z,8.50
2023-03-24T13:22:18.007Z,7.80
2023-03-24T13:24:45.272Z,6.38
2023-03-24T13:27:31.984Z,6.40
2023-03-24T13:30:08.997Z,6.65
2023-03-24T13:32:45.028Z,7.20
2023-03-24T13:35:26.761Z,5.20
2023-03-24T13:37:57.378Z,8.18
2023-03-24T13:40:27.414Z,9.18
2023-03-24T13:42:55.154Z,8.70
2023-03-24T13:45:27.384Z,12.48
2023-03-24T13:48:06.552Z,12.23
2023-03-24T13:50:34.425Z,9.65
2023-03-24T13:53:05.986Z,13.70
2023-03-24T13:55:36.403Z,13.13
2023-03-24T13:58:15.798Z,10.80
2023-03-24T14:03:43.255Z,10.00
2023-03-24T14:06:11.165Z,11.13
2023-03-24T14:08:53.301Z,9.00
2023-03-24T14:11:33.812Z,6.50
2023-03-24T14:14:20.906Z,10.30
2023-03-24T14:17:06.495Z,8.00
2023-03-24T14:19:41.822Z,11.07
2023-03-24T14:22:16.364Z,11.13
2023-03-24T14:24:45.320Z,9.50
2023-03-24T14:27:34.442Z,7.68
2023-03-24T14:30:02.871Z,9.52
2023-03-24T14:32:29.656Z,8.57
2023-03-24T14:34:57.991Z,15.02
2023-03-24T14:37:28.434Z,9.15
2023-03-24T14:39:57.524Z,8.95
2023-03-24T14:42:32.918Z,7.63
2023-03-24T14:45:04.221Z,12.13
2023-03-24T14:47:32.916Z,10.70
2023-03-24T14:50:01.470Z,6.63
2023-03-24T14:52:37.401Z,11.13
2023-03-24T14:55:13.016Z,9.93
2023-03-24T14:57:44.441Z,8.48
2023-03-24T15:00:40.485Z,12.43
2023-03-24T15:03:29.284Z,6.25
2023-03-24T15:06:13.186Z,10.35
2023-03-24T15:08:42.114Z,4.90
2023-03-24T15:11:08.997Z,9.27
2023-03-24T15:13:42.200Z,10.68
2023-03-24T15:16:12.072Z,11.52
2023-03-24T15:21:38.818Z,17.95
2023-03-24T15:24:38.480Z,13.45
2023-03-24T15:27:08.409Z,8.77
2023-03-24T15:29:39.786Z,11.13
2023-03-24T15:32:06.584Z,17.02
2023-03-24T15:34:39.291Z,8.20
2023-03-24T15:37:07.898Z,10.98
2023-03-24T15:39:36.776Z,8.20
2023-03-24T15:42:15.886Z,11.70
2023-03-24T15:44:42.944Z,9.80
2023-03-24T15:47:16.734Z,7.65
2023-03-24T15:49:54.737Z,13.00
2023-03-24T15:52:27.871Z,15.93
2023-03-24T15:55:07.879Z,6.80
2023-03-24T15:57:43.319Z,14.95
2023-03-24T16:00:16.452Z,8.85
2023-03-24T16:02:47.567Z,11.43
2023-03-24T16:05:22.755Z,11.40
2023-03-24T16:07:57.030Z,12.45
2023-03-24T16:10:26.708Z,14.38
2023-03-24T16:12:53.434Z,13.50
2023-03-24T16:15:20.204Z,13.98
2023-03-24T16:17:47.840Z,9.80
2023-03-24T16:20:19.878Z,12.50
2023-03-24T16:22:49.429Z,25.08
2023-03-24T16:27:43.073Z,7.60
2023-03-24T16:30:17.083Z,11.63
2023-03-24T16:32:43.897Z,10.82
2023-03-24T16:35:11.173Z,14.30
2023-03-24T16:37:38.236Z,17.20
2023-03-24T16:40:19.320Z,13.90
2023-03-24T16:42:46.714Z,17.80
2023-03-24T16:45:13.540Z,11.95
2023-03-24T16:47:40.379Z,14.98
2023-03-24T16:50:27.502Z,15.48
2023-03-24T16:52:54.508Z,9.52
2023-03-24T16:55:21.273Z,12.25
2023-03-24T16:57:48.050Z,14.43
2023-03-24T17:00:15.811Z,11.43
2023-03-24T17:02:48.412Z,14.35
2023-03-24T17:05:25.760Z,12.23
2023-03-24T17:07:52.533Z,14.75
2023-03-24T17:10:19.811Z,14.02
2023-03-24T17:12:47.344Z,20.05
2023-03-24T17:15:19.776Z,12.32
2023-03-24T17:17:46.614Z,13.43
2023-03-24T17:20:13.652Z,14.00
2023-03-24T17:22:42.019Z,12.50
2023-03-24T17:25:10.241Z,13.20
2023-03-24T17:27:37.046Z,11.23
2023-03-24T17:30:04.266Z,7.70
2023-03-24T17:32:32.304Z,1.92
2023-03-24T17:34:59.930Z,4.90
2023-03-24T17:37:28.453Z,3.45
2023-03-24T17:39:58.173Z,2.97
2023-03-24T17:42:26.306Z,2.20
2023-03-24T17:44:53.196Z,4.82
2023-03-24T17:47:19.969Z,10.48
2023-03-24T17:49:47.470Z,2.42
2023-03-24T17:52:14.360Z,6.90
2023-03-24T17:54:41.243Z,2.00
2023-03-24T17:57:08.110Z,4.93
2023-03-24T17:59:34.947Z,2.63
2023-03-24T18:02:01.645Z,8.35
2023-03-24T18:04:29.105Z,8.43
2023-03-24T18:06:55.954Z,6.20
2023-03-24T18:09:22.691Z,4.72
2023-03-24T18:11:49.405Z,3.45
2023-03-24T18:14:16.160Z,3.28
2023-03-24T18:16:42.887Z,4.35
2023-03-24T18:19:09.612Z,3.65
2023-03-24T18:21:36.668Z,3.85
2023-03-24T18:24:04.568Z,3.83
2023-03-24T18:26:31.363Z,4.95
2023-03-24T18:28:58.152Z,7.03
2023-03-24T18:31:26.308Z,4.95
2023-03-24T18:33:53.804Z,3.83
2023-03-24T18:36:21.876Z,4.40
2023-03-24T18:38:48.997Z,4.70
2023-03-24T18:41:18.222Z,2.20
2023-03-24T18:43:48.308Z,1.83
2023-03-24T18:46:15.428Z,3.33
2023-03-24T18:48:42.654Z,3.72
2023-03-24T18:51:09.674Z,4.32
2023-03-24T18:53:36.566Z,2.70
2023-03-24T18:56:04.142Z,4.32
2023-03-24T18:58:31.542Z,7.68
2023-03-24T19:00:58.764Z,6.60
2023-03-24T19:03:27.294Z,5.03
2023-03-24T19:05:54.195Z,7.05
2023-03-24T19:08:21.624Z,8.90
2023-03-24T19:10:48.413Z,7.85
2023-03-24T19:13:15.961Z,10.65
2023-03-24T19:15:46.780Z,10.23
2023-03-24T19:18:13.657Z,7.30
2023-03-24T19:20:40.966Z,6.07
2023-03-24T19:23:07.960Z,10.40
2023-03-24T19:25:35.314Z,9.30
2023-03-24T19:28:02.094Z,9.30
2023-03-24T19:30:29.486Z,10.68
2023-03-24T19:32:56.901Z,14.40
2023-03-24T19:35:24.012Z,16.75
2023-03-24T19:37:50.830Z,11.35
2023-03-24T19:40:17.692Z,12.68
2023-03-24T19:42:45.132Z,16.90
2023-03-24T19:45:13.223Z,11.85
2023-03-24T19:47:40.022Z,19.15
2023-03-24T19:50:07.891Z,14.40
2023-03-24T19:52:35.093Z,9.98
2023-03-24T19:55:02.365Z,13.73
2023-03-24T19:57:32.956Z,25.60
2023-03-24T19:59:59.709Z,16.65
2023-03-24T20:02:26.501Z,13.23
2023-03-24T20:04:55.258Z,21.27
2023-03-24T20:07:23.030Z,14.95
2023-03-24T20:09:49.847Z,13.43
2023-03-24T20:12:16.630Z,13.27
2023-03-24T20:14:43.466Z,13.35
2023-03-24T20:17:16.684Z,19.35
2023-03-24T20:19:43.664Z,16.88
2023-03-24T20:22:10.404Z,16.40
2023-03-24T20:24:38.686Z,17.33
2023-03-24T20:27:06.548Z,27.38
2023-03-24T20:29:33.545Z,23.70
2023-03-24T20:32:00.379Z,25.80
2023-03-24T20:34:27.191Z,17.17
2023-03-24T20:36:53.942Z,14.18
2023-03-24T20:39:20.797Z,23.05
2023-03-24T20:41:47.567Z,23.48
2023-03-24T20:44:14.364Z,28.05
2023-03-24T20:46:41.096Z,25.63
2023-03-24T20:49:08.661Z,19.13
2023-03-24T20:51:35.549Z,16.40
2023-03-24T20:54:02.614Z,20.13
2023-03-24T20:56:30.253Z,20.42
2023-03-24T20:58:57.012Z,22.73
2023-03-24T21:01:24.646Z,17.33
2023-03-24T21:03:51.991Z,12.30
2023-03-24T21:06:18.857Z,18.20
2023-03-24T21:08:45.776Z,20.00
2023-03-24T21:11:12.573Z,17.52
2023-03-24T21:13:39.441Z,25.52
2023-03-24T21:16:08.608Z,17.15
2023-03-24T21:18:36.626Z,17.33
2023-03-24T21:21:06.512Z,17.33
2023-03-24T21:23:34.425Z,25.42
2023-03-24T21:26:02.040Z,21.77
2023-03-24T21:28:30.430Z,15.85
2023-03-24T21:31:06.948Z,17.50
2023-03-24T21:33:33.876Z,19.13
2023-03-24T21:36:01.001Z,19.58
2023-03-24T21:38:27.784Z,16.80
2023-03-24T21:41:01.027Z,17.45
2023-03-24T21:43:29.206Z,12.45
2023-03-24T21:45:59.169Z,13.93
2023-03-24T21:48:29.063Z,18.45
2023-03-24T21:50:56.083Z,22.35
2023-03-24T21:53:23.662Z,14.68
2023-03-24T21:55:55.573Z,20.75
2023-03-24T21:58:22.937Z,13.57
2023-03-24T22:00:49.998Z,14.20
2023-03-24T22:03:17.377Z,12.52
2023-03-24T22:05:44.360Z,10.38
2023-03-24T22:08:12.260Z,22.67
2023-03-24T22:10:43.179Z,17.23
2023-03-24T22:13:12.545Z,14.88
2023-03-24T22:15:39.256Z,11.77
2023-03-24T22:18:06.069Z,14.43
2023-03-24T22:20:33.475Z,13.98
2023-03-24T22:23:03.475Z,15.07
2023-03-24T22:25:30.797Z,14.85
2023-03-24T22:27:57.713Z,19.48
2023-03-24T22:30:24.539Z,22.88
2023-03-24T22:32:51.346Z,15.07
2023-03-24T22:35:18.279Z,13.60
2023-03-24T22:37:45.115Z,15.82
2023-03-24T22:40:11.934Z,15.05
2023-03-24T22:42:38.764Z,11.23
2023-03-24T22:45:06.224Z,19.85
2023-03-24T22:47:33.020Z,21.25
2023-03-24T22:49:59.822Z,19.63
2023-03-24T22:52:28.272Z,17.23
2023-03-24T22:54:55.140Z,19.25
2023-03-24T22:57:22.003Z,23.02
2023-03-24T22:59:48.766Z,17.88
2023-03-24T23:02:15.521Z,14.98
2023-03-24T23:04:42.402Z,11.00
2023-03-24T23:07:09.215Z,9.10
2023-03-24T23:09:36.625Z,13.50
2023-03-24T23:12:04.207Z,18.58
2023-03-24T23:14:31.410Z,11.73
2023-03-24T23:16:58.672Z,12.80
2023-03-24T23:19:26.017Z,8.88
2023-03-24T23:21:52.749Z,18.13
2023-03-24T23:24:19.681Z,11.30
2023-03-24T23:26:47.319Z,9.20
2023-03-24T23:29:14.112Z,13.82
2023-03-24T23:31:41.154Z,10.35
2023-03-24T23:34:10.613Z,13.55
2023-03-24T23:36:39.330Z,15.20
2023-03-24T23:39:06.102Z,10.60
2023-03-24T23:41:32.875Z,13.52
2023-03-24T23:43:59.653Z,10.10
2023-03-24T23:46:26.853Z,10.73
2023-03-24T23:48:53.756Z,12.95
2023-03-24T23:51:20.591Z,10.70
2023-03-24T23:53:47.331Z,12.57
2023-03-24T23:56:14.923Z,11.65
2023-03-24T23:58:42.612Z,13.88
